createdAt,value
2024-01-24T00:00:09.347Z,6.68
2024-01-24T00:02:39.635Z,12.10
2024-01-24T00:05:07.587Z,11.52
2024-01-24T00:07:34.681Z,7.00
2024-01-24T00:10:03.650Z,9.10
2024-01-24T00:12:30.717Z,7.43
2024-01-24T00:14:58.362Z,10.35
2024-01-24T00:17:25.466Z,7.70
2024-01-24T00:19:52.512Z,11.30
2024-01-24T00:22:19.557Z,9.25
2024-01-24T00:24:46.546Z,11.27
2024-01-24T00:27:13.755Z,8.10
2024-01-24T00:29:41.419Z,7.18
2024-01-24T00:32:08.418Z,10.25
2024-01-24T00:34:35.479Z,8.65
2024-01-24T00:37:02.546Z,7.20
2024-01-24T00:39:29.635Z,7.85
2024-01-24T00:41:59.461Z,6.90
2024-01-24T00:44:26.496Z,5.10
2024-01-24T00:46:53.557Z,7.65
2024-01-24T00:49:20.790Z,13.45
2024-01-24T00:51:47.981Z,8.80
2024-01-24T00:54:15.263Z,7.95
2024-01-24T00:56:42.418Z,12.55
2024-01-24T00:59:09.664Z,5.95
2024-01-24T01:01:36.875Z,11.48
2024-01-24T01:04:05.296Z,10.88
2024-01-24T01:06:32.423Z,6.85
2024-01-24T01:09:01.288Z,7.80
2024-01-24T01:11:28.778Z,7.93
2024-01-24T01:13:55.713Z,8.75
2024-01-24T01:16:22.812Z,6.72
2024-01-24T01:18:49.791Z,9.73
2024-01-24T01:21:17.002Z,7.88
2024-01-24T01:23:44.024Z,8.07
2024-01-24T01:26:10.989Z,4.28
2024-01-24T01:28:37.999Z,10.98
2024-01-24T01:31:05.390Z,10.13
2024-01-24T01:33:32.465Z,5.93
2024-01-24T01:36:09.220Z,6.63
2024-01-24T01:38:44.880Z,7.13
2024-01-24T01:41:12.485Z,5.40
2024-01-24T01:43:39.524Z,8.43
2024-01-24T01:46:20.260Z,10.18
2024-01-24T01:48:49.527Z,7.43
2024-01-24T01:51:23.307Z,9.20
2024-01-24T01:53:50.917Z,9.77
2024-01-24T01:56:21.004Z,7.13
2024-01-24T02:01:16.925Z,10.05
2024-01-24T02:03:48.344Z,8.02
2024-01-24T02:06:15.525Z,9.73
2024-01-24T02:08:44.853Z,7.00
2024-01-24T02:11:12.818Z,6.10
2024-01-24T02:13:39.863Z,9.52
2024-01-24T02:16:07.550Z,10.00
2024-01-24T02:18:34.618Z,7.75
2024-01-24T02:21:01.866Z,8.30
2024-01-24T02:23:31.281Z,5.32
2024-01-24T02:25:58.885Z,5.85
2024-01-24T02:28:26.042Z,6.72
2024-01-24T02:30:53.153Z,7.97
2024-01-24T02:33:20.519Z,8.68
2024-01-24T02:35:47.597Z,7.00
2024-01-24T02:38:14.609Z,6.88
2024-01-24T02:40:42.010Z,4.40
2024-01-24T02:43:08.946Z,6.05
2024-01-24T02:45:35.899Z,7.63
2024-01-24T02:48:02.993Z,7.35
2024-01-24T02:50:29.989Z,7.88
2024-01-24T02:52:56.928Z,4.18
2024-01-24T02:55:23.910Z,9.93
2024-01-24T02:57:51.008Z,7.07
2024-01-24T03:00:18.697Z,10.82
2024-01-24T03:02:45.633Z,8.57
2024-01-24T03:05:12.666Z,4.80
2024-01-24T03:07:42.114Z,7.93
2024-01-24T03:10:09.681Z,6.78
2024-01-24T03:12:37.020Z,7.20
2024-01-24T03:15:04.442Z,6.78
2024-01-24T03:17:31.436Z,3.25
2024-01-24T03:19:58.583Z,5.95
2024-01-24T03:22:26.241Z,3.75
2024-01-24T03:24:53.998Z,8.25
2024-01-24T03:27:21.151Z,5.10
2024-01-24T03:29:48.761Z,4.13
2024-01-24T03:32:16.187Z,8.90
2024-01-24T03:34:56.948Z,5.13
2024-01-24T03:37:24.486Z,9.63
2024-01-24T03:39:51.679Z,6.18
2024-01-24T03:42:19.376Z,8.43
2024-01-24T03:44:46.430Z,5.05
2024-01-24T03:47:13.442Z,4.65
2024-01-24T03:49:40.460Z,8.98
2024-01-24T03:52:07.512Z,5.18
2024-01-24T03:54:34.433Z,7.35
2024-01-24T03:57:01.648Z,5.05
2024-01-24T03:59:28.735Z,4.82
2024-01-24T04:01:55.826Z,5.13
2024-01-24T04:04:22.980Z,5.28
2024-01-24T04:06:50.144Z,7.95
2024-01-24T04:09:17.239Z,11.75
2024-01-24T04:11:44.210Z,6.43
2024-01-24T04:14:11.206Z,2.97
2024-01-24T04:16:41.178Z,3.63
2024-01-24T04:19:08.776Z,3.95
2024-01-24T04:21:44.258Z,6.72
2024-01-24T04:24:11.663Z,4.28
2024-01-24T04:26:39.161Z,4.88
2024-01-24T04:29:07.778Z,5.05
2024-01-24T04:31:35.415Z,3.37
2024-01-24T04:34:02.484Z,5.32
2024-01-24T04:36:29.670Z,2.53
2024-01-24T04:38:56.622Z,4.32
2024-01-24T04:41:23.697Z,4.70
2024-01-24T04:43:50.826Z,4.32
2024-01-24T04:46:18.029Z,7.40
2024-01-24T04:48:46.323Z,6.60
2024-01-24T04:51:13.584Z,4.93
2024-01-24T04:53:41.231Z,3.05
2024-01-24T04:56:08.894Z,7.03
2024-01-24T04:58:35.936Z,3.92
2024-01-24T05:01:03.603Z,4.47
2024-01-24T05:03:30.687Z,5.15
2024-01-24T05:06:04.431Z,3.58
2024-01-24T05:08:37.068Z,4.50
2024-01-24T05:11:05.264Z,5.18
2024-01-24T05:13:32.940Z,7.15
2024-01-24T05:16:00.495Z,2.53
2024-01-24T05:18:27.778Z,4.72
2024-01-24T05:20:54.926Z,5.45
2024-01-24T05:23:22.263Z,5.38
2024-01-24T05:25:49.389Z,2.60
2024-01-24T05:28:17.396Z,6.10
2024-01-24T05:30:44.463Z,4.60
2024-01-24T05:33:11.991Z,4.07
2024-01-24T05:35:39.196Z,8.05
2024-01-24T05:38:06.283Z,4.32
2024-01-24T05:40:33.440Z,3.78
2024-01-24T05:43:02.690Z,2.45
2024-01-24T05:45:29.783Z,2.83
2024-01-24T05:47:56.879Z,5.13
2024-01-24T05:50:23.993Z,3.63
2024-01-24T05:52:50.931Z,4.65
2024-01-24T05:55:17.987Z,5.22
2024-01-24T05:57:47.491Z,4.00
2024-01-24T06:00:16.005Z,5.65
2024-01-24T06:02:44.882Z,2.17
2024-01-24T06:05:13.197Z,4.95
2024-01-24T06:07:40.647Z,4.43
2024-01-24T06:10:08.619Z,3.65
2024-01-24T06:12:35.691Z,3.67
2024-01-24T06:15:03.770Z,2.70
2024-01-24T06:17:32.323Z,3.05
2024-01-24T06:20:01.189Z,3.75
2024-01-24T06:22:28.986Z,5.30
2024-01-24T06:24:57.928Z,3.85
2024-01-24T06:27:25.016Z,13.13
2024-01-24T06:30:17.317Z,3.60
2024-01-24T06:32:39.377Z,5.32
2024-01-24T06:35:09.024Z,5.10
2024-01-24T06:37:36.080Z,8.85
2024-01-24T06:40:04.293Z,3.80
2024-01-24T06:42:31.875Z,5.13
2024-01-24T06:44:59.036Z,5.15
2024-01-24T06:47:26.175Z,4.07
2024-01-24T06:49:53.237Z,2.92
2024-01-24T06:52:20.240Z,2.50
2024-01-24T06:54:47.274Z,2.50
2024-01-24T06:57:14.301Z,5.22
2024-01-24T06:59:41.460Z,3.00
2024-01-24T07:02:08.548Z,5.30
2024-01-24T07:04:35.811Z,2.83
2024-01-24T07:07:03.196Z,2.35
2024-01-24T07:09:30.385Z,3.47
2024-01-24T07:11:58.057Z,1.90
2024-01-24T07:14:25.813Z,5.00
2024-01-24T07:16:52.914Z,3.45
2024-01-24T07:19:20.104Z,2.83
2024-01-24T07:21:48.361Z,4.43
2024-01-24T07:24:17.769Z,4.00
2024-01-24T07:26:48.500Z,2.45
2024-01-24T07:29:16.707Z,1.92
2024-01-24T07:31:43.830Z,2.08
2024-01-24T07:34:12.927Z,1.95
2024-01-24T07:36:40.129Z,3.40
2024-01-24T07:39:07.917Z,3.67
2024-01-24T07:41:37.888Z,1.80
2024-01-24T07:44:05.372Z,1.90
2024-01-24T07:46:33.823Z,3.97
2024-01-24T07:49:01.392Z,3.88
2024-01-24T07:51:28.838Z,2.08
2024-01-24T07:53:58.101Z,4.50
2024-01-24T07:56:28.198Z,3.17
2024-01-24T08:01:23.094Z,3.88
2024-01-24T08:03:51.365Z,3.38
2024-01-24T08:06:19.586Z,4.25
2024-01-24T08:08:47.033Z,6.47
2024-01-24T08:11:14.256Z,3.97
2024-01-24T08:13:42.339Z,2.65
2024-01-24T08:16:11.410Z,5.10
2024-01-24T08:18:38.792Z,4.85
2024-01-24T08:21:08.756Z,4.50
2024-01-24T08:23:42.979Z,2.53
2024-01-24T08:26:18.022Z,5.63
2024-01-24T08:28:45.120Z,2.53
2024-01-24T08:31:15.561Z,5.30
2024-01-24T08:33:42.941Z,1.98
2024-01-24T08:36:10.402Z,3.85
2024-01-24T08:38:37.828Z,3.55
2024-01-24T08:41:05.406Z,3.10
2024-01-24T08:43:33.418Z,3.17
2024-01-24T08:46:01.023Z,2.53
2024-01-24T08:48:28.501Z,2.80
2024-01-24T08:50:55.935Z,3.55
2024-01-24T08:53:23.271Z,2.25
2024-01-24T08:55:50.853Z,3.00
2024-01-24T08:58:18.124Z,1.60
2024-01-24T09:00:46.525Z,1.58
2024-01-24T09:03:15.069Z,2.90
2024-01-24T09:06:16.511Z,2.55
2024-01-24T09:08:45.914Z,1.60
2024-01-24T09:11:14.372Z,1.67
2024-01-24T09:13:43.978Z,1.27
2024-01-24T09:16:11.404Z,3.80
2024-01-24T09:18:39.586Z,4.57
2024-01-24T09:21:07.008Z,10.63
2024-01-24T09:23:34.371Z,6.00
2024-01-24T09:26:04.122Z,7.95
2024-01-24T09:28:31.871Z,10.05
2024-01-24T09:30:59.191Z,5.20
2024-01-24T09:33:26.545Z,3.10
2024-01-24T09:35:54.063Z,3.08
2024-01-24T09:38:21.340Z,3.95
2024-01-24T09:40:48.795Z,6.50
2024-01-24T09:43:17.669Z,4.22
2024-01-24T09:45:45.826Z,4.63
2024-01-24T09:48:13.220Z,2.85
2024-01-24T09:50:41.437Z,2.67
2024-01-24T09:53:10.485Z,2.15
2024-01-24T09:55:38.442Z,2.10
2024-01-24T09:58:08.035Z,2.92
2024-01-24T10:00:36.701Z,3.80
2024-01-24T10:03:04.929Z,3.28
2024-01-24T10:05:36.778Z,2.38
2024-01-24T10:08:04.581Z,2.28
2024-01-24T10:10:31.701Z,6.68
2024-01-24T10:12:58.895Z,3.78
2024-01-24T10:15:26.203Z,11.18
2024-01-24T10:17:58.119Z,8.30
2024-01-24T10:20:26.034Z,2.33
2024-01-24T10:22:55.264Z,4.68
2024-01-24T10:25:23.258Z,2.87
2024-01-24T10:27:50.705Z,2.50
2024-01-24T10:30:18.614Z,1.58
2024-01-24T10:32:50.030Z,1.40
2024-01-24T10:35:17.877Z,1.83
2024-01-24T10:37:45.587Z,2.00
2024-01-24T10:40:16.855Z,1.63
2024-01-24T10:42:45.914Z,2.58
2024-01-24T10:45:14.247Z,3.23
2024-01-24T10:47:42.687Z,3.20
2024-01-24T10:50:18.746Z,4.03
2024-01-24T10:52:46.536Z,2.08
2024-01-24T10:55:14.787Z,4.30
2024-01-24T10:57:44.152Z,1.63
2024-01-24T11:00:14.481Z,2.75
2024-01-24T11:02:43.085Z,2.17
2024-01-24T11:05:25.645Z,2.50
2024-01-24T11:08:19.081Z,1.23
2024-01-24T11:10:47.610Z,4.05
2024-01-24T11:13:18.219Z,6.90
2024-01-24T11:15:46.755Z,4.57
2024-01-24T11:18:32.233Z,6.60
2024-01-24T11:21:01.449Z,4.82
2024-01-24T11:23:44.709Z,4.25
2024-01-24T11:26:18.439Z,5.35
2024-01-24T11:28:47.157Z,6.43
2024-01-24T11:31:15.483Z,4.15
2024-01-24T11:34:14.360Z,2.95
2024-01-24T11:36:52.134Z,6.53
2024-01-24T11:39:31.856Z,5.30
2024-01-24T11:42:35.338Z,3.33
2024-01-24T11:45:18.938Z,5.18
2024-01-24T11:47:47.061Z,3.03
2024-01-24T11:50:15.829Z,3.13
2024-01-24T11:52:43.950Z,2.42
2024-01-24T11:55:11.293Z,3.00
2024-01-24T11:57:38.549Z,4.32
2024-01-24T12:00:07.899Z,2.95
2024-01-24T12:02:36.223Z,2.58
2024-01-24T12:05:05.012Z,1.90
2024-01-24T12:07:32.124Z,3.22
2024-01-24T12:09:59.466Z,4.65
2024-01-24T12:12:28.671Z,7.47
2024-01-24T12:14:59.007Z,5.47
2024-01-24T12:17:26.599Z,6.47
2024-01-24T12:19:54.070Z,2.97
2024-01-24T12:22:21.888Z,6.15
2024-01-24T12:24:51.103Z,4.85
2024-01-24T12:27:18.778Z,6.75
2024-01-24T12:29:56.035Z,7.25
2024-01-24T12:32:23.635Z,5.70
2024-01-24T12:34:54.526Z,6.43
2024-01-24T12:37:22.999Z,6.15
2024-01-24T12:39:54.492Z,7.85
2024-01-24T12:42:21.929Z,8.27
2024-01-24T12:44:55.025Z,7.85
2024-01-24T12:47:23.478Z,8.30
2024-01-24T12:49:50.725Z,10.50
2024-01-24T12:52:18.373Z,9.30
2024-01-24T12:54:45.704Z,11.57
2024-01-24T12:57:12.823Z,8.60
2024-01-24T12:59:39.871Z,8.85
2024-01-24T13:02:10.736Z,9.52
2024-01-24T13:04:38.130Z,11.63
2024-01-24T13:07:06.118Z,7.32
2024-01-24T13:09:37.200Z,9.35
2024-01-24T13:12:09.803Z,12.27
2024-01-24T13:14:37.451Z,9.70
2024-01-24T13:17:06.322Z,11.70
2024-01-24T13:19:33.545Z,11.15
2024-01-24T13:22:01.049Z,11.77
2024-01-24T13:24:32.180Z,10.40
2024-01-24T13:26:59.635Z,9.93
2024-01-24T13:29:26.915Z,12.18
2024-01-24T13:31:54.203Z,9.27
2024-01-24T13:34:21.657Z,11.05
2024-01-24T13:36:49.119Z,12.07
2024-01-24T13:39:22.396Z,9.95
2024-01-24T13:41:51.049Z,10.95
2024-01-24T13:44:18.201Z,9.20
2024-01-24T13:46:45.535Z,8.13
2024-01-24T13:49:12.786Z,11.15
2024-01-24T13:51:43.333Z,12.68
2024-01-24T13:54:12.299Z,9.48
2024-01-24T13:56:39.545Z,12.45
2024-01-24T13:59:06.779Z,13.00
2024-01-24T14:01:36.332Z,15.18
2024-01-24T14:04:09.879Z,13.02
2024-01-24T14:06:37.667Z,15.25
2024-01-24T14:09:05.256Z,14.60
2024-01-24T14:11:32.537Z,10.88
2024-01-24T14:14:03.613Z,17.02
2024-01-24T14:16:30.854Z,13.20
2024-01-24T14:18:58.275Z,12.50
2024-01-24T14:21:25.700Z,11.77
2024-01-24T14:23:52.968Z,13.40
2024-01-24T14:26:20.098Z,12.48
2024-01-24T14:28:47.852Z,17.55
2024-01-24T14:31:15.132Z,14.38
2024-01-24T14:33:42.387Z,19.65
2024-01-24T14:36:09.709Z,18.67
2024-01-24T14:38:37.231Z,13.65
2024-01-24T14:41:04.553Z,16.15
2024-01-24T14:43:31.883Z,17.42
2024-01-24T14:45:59.217Z,15.45
2024-01-24T14:48:26.597Z,17.42
2024-01-24T14:50:53.820Z,16.92
2024-01-24T14:53:21.164Z,12.98
2024-01-24T14:55:48.250Z,19.30
2024-01-24T14:58:18.325Z,14.23
2024-01-24T15:00:48.413Z,13.43
2024-01-24T15:05:43.879Z,14.88
2024-01-24T15:08:11.005Z,17.23
2024-01-24T15:10:38.151Z,15.98
2024-01-24T15:13:05.622Z,13.43
2024-01-24T15:15:34.382Z,14.50
2024-01-24T15:18:01.717Z,20.23
2024-01-24T15:20:29.208Z,15.40
2024-01-24T15:22:56.372Z,14.60
2024-01-24T15:25:23.611Z,18.20
2024-01-24T15:27:51.057Z,14.90
2024-01-24T15:30:18.463Z,18.48
2024-01-24T15:32:46.212Z,21.60
2024-01-24T15:35:13.642Z,18.00
2024-01-24T15:37:40.911Z,17.23
2024-01-24T15:40:12.317Z,18.45
2024-01-24T15:42:43.177Z,14.65
2024-01-24T15:45:11.644Z,11.48
2024-01-24T15:47:39.562Z,16.73
2024-01-24T15:50:07.114Z,13.48
2024-01-24T15:52:35.462Z,12.85
2024-01-24T15:55:06.775Z,15.03
2024-01-24T15:57:34.078Z,10.95
2024-01-24T16:00:01.235Z,18.27
2024-01-24T16:02:30.300Z,15.90
2024-01-24T16:05:01.041Z,16.15
2024-01-24T16:07:28.746Z,24.65
2024-01-24T16:09:56.615Z,22.38
2024-01-24T16:12:26.284Z,20.83
2024-01-24T16:17:23.729Z,12.45
2024-01-24T16:19:53.985Z,17.02
2024-01-24T16:24:59.847Z,14.57
2024-01-24T16:27:27.017Z,17.67
2024-01-24T16:29:54.071Z,15.85
2024-01-24T16:32:21.369Z,23.88
2024-01-24T16:34:49.237Z,19.63
2024-01-24T16:37:16.565Z,16.50
2024-01-24T16:39:44.601Z,15.20
2024-01-24T16:42:11.862Z,16.15
2024-01-24T16:44:38.956Z,11.52
2024-01-24T16:47:07.747Z,14.80
2024-01-24T16:49:35.372Z,16.38
2024-01-24T16:52:02.948Z,13.65
2024-01-24T16:54:30.099Z,20.02
2024-01-24T16:56:57.135Z,16.85
2024-01-24T16:59:24.325Z,15.30
2024-01-24T17:01:51.386Z,19.42
2024-01-24T17:04:18.561Z,17.58
2024-01-24T17:06:46.272Z,19.00
2024-01-24T17:09:13.652Z,18.30
2024-01-24T17:11:40.751Z,19.65
2024-01-24T17:14:07.831Z,17.77
2024-01-24T17:16:36.872Z,20.05
2024-01-24T17:19:04.092Z,13.40
2024-01-24T17:21:32.817Z,14.50
2024-01-24T17:24:02.203Z,23.15
2024-01-24T17:26:29.757Z,19.50
2024-01-24T17:28:58.281Z,21.92
2024-01-24T17:31:27.408Z,20.30
2024-01-24T17:33:57.693Z,21.13
2024-01-24T17:36:24.944Z,20.20
2024-01-24T17:38:52.039Z,22.10
2024-01-24T17:41:19.120Z,13.38
2024-01-24T17:43:46.291Z,15.55
2024-01-24T17:46:13.454Z,18.58
2024-01-24T17:48:44.939Z,21.33
2024-01-24T17:51:15.179Z,18.70
2024-01-24T17:53:43.269Z,21.70
2024-01-24T17:56:12.495Z,13.98
2024-01-24T17:58:39.736Z,15.07
2024-01-24T18:01:06.967Z,15.25
2024-01-24T18:03:35.995Z,17.90
2024-01-24T18:06:03.401Z,17.38
2024-01-24T18:08:30.830Z,17.80
2024-01-24T18:10:58.630Z,24.92
2024-01-24T18:13:27.399Z,20.17
2024-01-24T18:15:56.325Z,26.77
2024-01-24T18:18:23.952Z,21.05
2024-01-24T18:20:54.942Z,22.13
2024-01-24T18:23:22.573Z,18.50
2024-01-24T18:25:50.941Z,21.55
2024-01-24T18:28:18.927Z,14.93
2024-01-24T18:30:46.837Z,15.43
2024-01-24T18:33:17.533Z,17.00
2024-01-24T18:35:48.613Z,18.25
2024-01-24T18:38:15.938Z,17.92
2024-01-24T18:40:43.459Z,15.77
2024-01-24T18:43:11.664Z,17.48
2024-01-24T18:45:38.981Z,17.08
2024-01-24T18:48:07.386Z,17.08
2024-01-24T18:50:34.717Z,21.33
2024-01-24T18:53:01.928Z,16.02
2024-01-24T18:55:29.517Z,27.42
2024-01-24T18:57:56.853Z,14.77
2024-01-24T19:00:24.315Z,25.00
2024-01-24T19:02:57.055Z,20.50
2024-01-24T19:05:33.927Z,19.67
2024-01-24T19:08:13.927Z,20.73
2024-01-24T19:10:41.604Z,18.42
2024-01-24T19:13:08.948Z,27.00
2024-01-24T19:15:36.393Z,23.52
2024-01-24T19:18:10.800Z,18.20
2024-01-24T19:20:42.175Z,20.45
2024-01-24T19:23:11.661Z,21.67
2024-01-24T19:25:41.845Z,13.70
2024-01-24T19:28:10.917Z,15.98
2024-01-24T19:30:38.256Z,20.55
2024-01-24T19:33:08.206Z,17.73
2024-01-24T19:35:36.162Z,15.57
2024-01-24T19:38:04.220Z,23.65
2024-01-24T19:40:32.552Z,20.42
2024-01-24T19:43:00.581Z,20.50
2024-01-24T19:45:27.921Z,16.05
2024-01-24T19:47:56.055Z,25.85
2024-01-24T19:50:28.187Z,21.25
2024-01-24T19:52:56.677Z,27.05
2024-01-24T19:55:24.998Z,28.77
2024-01-24T19:57:52.568Z,21.65
2024-01-24T20:00:20.316Z,23.77
2024-01-24T20:02:47.663Z,24.42
2024-01-24T20:05:15.383Z,18.75
2024-01-24T20:07:44.843Z,16.00
2024-01-24T20:10:12.580Z,19.02
2024-01-24T20:12:40.027Z,26.75
2024-01-24T20:15:08.560Z,19.13
2024-01-24T20:17:35.888Z,28.67
2024-01-24T20:20:03.957Z,24.15
2024-01-24T20:22:31.416Z,24.40
2024-01-24T20:25:14.596Z,18.88
2024-01-24T20:27:41.948Z,18.58
2024-01-24T20:30:09.604Z,13.43
2024-01-24T20:32:42.962Z,20.77
2024-01-24T20:35:16.581Z,18.92
2024-01-24T20:37:43.816Z,19.80
2024-01-24T20:40:11.790Z,21.88
2024-01-24T20:42:39.235Z,22.13
2024-01-24T20:45:07.155Z,22.27
2024-01-24T20:47:35.397Z,27.27
2024-01-24T20:50:03.202Z,21.65
2024-01-24T20:52:31.138Z,19.15
2024-01-24T20:54:58.563Z,22.55
2024-01-24T20:57:26.025Z,19.08
2024-01-24T20:59:54.611Z,21.42
2024-01-24T21:02:22.590Z,19.33
2024-01-24T21:04:50.407Z,27.88
2024-01-24T21:07:17.880Z,23.65
2024-01-24T21:09:45.151Z,24.77
2024-01-24T21:12:12.800Z,24.23
2024-01-24T21:14:40.199Z,18.58
2024-01-24T21:17:07.473Z,20.23
2024-01-24T21:19:34.863Z,30.10
2024-01-24T21:22:02.965Z,21.38
2024-01-24T21:24:30.433Z,23.83
2024-01-24T21:26:57.766Z,17.85
2024-01-24T21:29:24.968Z,28.33
2024-01-24T21:31:52.166Z,20.80
2024-01-24T21:34:19.510Z,23.20
2024-01-24T21:36:48.621Z,28.55
2024-01-24T21:41:47.932Z,18.88
2024-01-24T21:44:15.106Z,15.82
2024-01-24T21:46:42.237Z,20.85
2024-01-24T21:49:09.358Z,22.85
2024-01-24T21:51:37.414Z,20.27
2024-01-24T21:54:05.698Z,13.95
2024-01-24T21:56:33.479Z,15.52
2024-01-24T21:59:01.072Z,22.00
2024-01-24T22:01:34.739Z,22.42
2024-01-24T22:04:04.423Z,16.73
2024-01-24T22:06:34.601Z,19.25
2024-01-24T22:09:08.366Z,18.92
2024-01-24T22:11:42.338Z,19.83
2024-01-24T22:14:09.877Z,18.33
2024-01-24T22:16:42.637Z,21.05
2024-01-24T22:19:13.521Z,19.30
2024-01-24T22:21:45.846Z,20.70
2024-01-24T22:24:15.877Z,22.88
2024-01-24T22:26:45.839Z,23.40
2024-01-24T22:29:13.002Z,18.40
2024-01-24T22:31:48.781Z,22.70
2024-01-24T22:34:19.072Z,22.85
2024-01-24T22:36:46.333Z,22.45
2024-01-24T22:39:16.612Z,14.50
2024-01-24T22:41:46.801Z,18.98
2024-01-24T22:46:46.954Z,15.75
2024-01-24T22:51:41.412Z,20.35
2024-01-24T22:54:11.483Z,21.63
2024-01-24T22:56:38.534Z,27.55
2024-01-24T22:59:08.166Z,23.23
2024-01-24T23:01:35.263Z,31.65
2024-01-24T23:04:05.809Z,19.77
2024-01-24T23:06:33.066Z,22.35
2024-01-24T23:09:00.125Z,21.13
2024-01-24T23:11:27.201Z,21.35
2024-01-24T23:13:54.315Z,26.65
2024-01-24T23:16:21.551Z,21.45
2024-01-24T23:18:51.934Z,20.20
2024-01-24T23:21:19.085Z,25.33
2024-01-24T23:23:46.096Z,20.85
2024-01-24T23:26:13.049Z,23.23
2024-01-24T23:28:40.185Z,22.65
2024-01-24T23:31:08.284Z,21.70
2024-01-24T23:33:36.353Z,18.40
2024-01-24T23:36:09.606Z,20.20
2024-01-24T23:38:36.691Z,25.73
2024-01-24T23:41:03.882Z,29.05
2024-01-24T23:43:30.887Z,31.45
2024-01-24T23:45:58.147Z,22.55
2024-01-24T23:48:25.443Z,24.23
2024-01-24T23:50:52.576Z,26.25
2024-01-24T23:53:19.692Z,22.42
2024-01-24T23:55:50.582Z,27.55
2024-01-24T23:58:21.582Z,19.80
